createdAt,value
2018-10-18T00:01:47.235Z,8.40
2018-10-18T00:04:14.399Z,7.20
2018-10-18T00:06:41.575Z,7.93
2018-10-18T00:09:09.652Z,6.97
2018-10-18T00:11:36.808Z,8.50
2018-10-18T00:14:04.026Z,10.83
2018-10-18T00:16:31.134Z,12.67
2018-10-18T00:18:58.289Z,11.87
2018-10-18T00:21:25.507Z,8.47
2018-10-18T00:23:52.659Z,8.03
2018-10-18T00:26:19.811Z,10.33
2018-10-18T00:28:46.983Z,10.13
2018-10-18T00:31:14.119Z,9.13
2018-10-18T00:33:41.282Z,9.10
2018-10-18T00:36:08.560Z,10.37
2018-10-18T00:38:35.629Z,9.53
2018-10-18T00:41:02.813Z,10.63
2018-10-18T00:43:29.942Z,11.10
2018-10-18T00:45:57.092Z,11.17
2018-10-18T00:48:24.240Z,11.47
2018-10-18T00:50:51.392Z,9.40
2018-10-18T00:53:18.556Z,10.03
2018-10-18T00:55:45.719Z,9.53
2018-10-18T00:58:12.867Z,10.07
2018-10-18T01:00:40.014Z,9.87
2018-10-18T01:03:07.156Z,11.97
2018-10-18T01:05:34.294Z,9.33
2018-10-18T01:08:01.427Z,11.93
2018-10-18T01:10:28.561Z,11.37
2018-10-18T01:12:55.715Z,9.83
2018-10-18T01:15:22.867Z,12.53
2018-10-18T01:17:50.025Z,10.53
2018-10-18T01:20:17.281Z,10.23
2018-10-18T01:22:44.422Z,11.20
2018-10-18T01:25:11.591Z,11.30
2018-10-18T01:27:38.751Z,12.33
2018-10-18T01:30:06.066Z,12.50
2018-10-18T01:32:33.176Z,11.87
2018-10-18T01:35:00.450Z,9.83
2018-10-18T01:37:27.602Z,11.00
2018-10-18T01:39:54.784Z,12.40
2018-10-18T01:42:21.931Z,10.23
2018-10-18T01:44:49.069Z,9.07
2018-10-18T01:47:16.295Z,8.17
2018-10-18T01:49:43.437Z,8.40
2018-10-18T01:52:10.599Z,9.70
2018-10-18T01:54:37.743Z,9.10
2018-10-18T01:57:05.348Z,13.80
2018-10-18T01:59:32.485Z,15.87
2018-10-18T02:01:59.657Z,11.80
2018-10-18T02:04:26.790Z,12.23
2018-10-18T02:06:53.938Z,11.57
2018-10-18T02:09:21.063Z,8.63
2018-10-18T02:11:48.202Z,12.43
2018-10-18T02:14:15.339Z,10.50
2018-10-18T02:16:42.475Z,12.90
2018-10-18T02:19:09.687Z,10.53
2018-10-18T02:21:36.759Z,13.00
2018-10-18T02:24:04.562Z,11.27
2018-10-18T02:26:31.733Z,12.20
2018-10-18T02:28:58.879Z,10.70
2018-10-18T02:31:26.023Z,12.17
2018-10-18T02:33:53.161Z,8.50
2018-10-18T02:36:20.397Z,11.23
2018-10-18T02:38:47.468Z,9.47
2018-10-18T02:41:14.652Z,9.50
2018-10-18T02:43:41.794Z,10.80
2018-10-18T02:46:09.072Z,11.90
2018-10-18T02:48:36.194Z,11.70
2018-10-18T02:51:03.334Z,13.23
2018-10-18T02:53:30.534Z,11.30
2018-10-18T02:55:57.670Z,11.70
2018-10-18T02:58:24.822Z,11.33
2018-10-18T03:00:51.991Z,12.47
2018-10-18T03:03:19.108Z,15.93
2018-10-18T03:05:46.252Z,9.97
2018-10-18T03:08:13.447Z,13.63
2018-10-18T03:10:40.612Z,11.93
2018-10-18T03:13:07.741Z,14.33
2018-10-18T03:15:34.885Z,11.57
2018-10-18T03:18:02.035Z,9.27
2018-10-18T03:20:29.170Z,11.07
2018-10-18T03:22:56.333Z,11.93
2018-10-18T03:25:23.486Z,9.33
2018-10-18T03:27:50.610Z,9.97
2018-10-18T03:30:17.812Z,10.77
2018-10-18T03:32:44.922Z,15.73
2018-10-18T03:35:12.055Z,13.03
2018-10-18T03:37:39.211Z,9.97
2018-10-18T03:40:07.061Z,13.90
2018-10-18T03:42:34.301Z,12.40
2018-10-18T03:45:01.475Z,15.47
2018-10-18T03:47:28.606Z,15.10
2018-10-18T03:49:55.728Z,12.03
2018-10-18T03:52:22.899Z,10.80
2018-10-18T03:54:50.274Z,11.80
2018-10-18T03:57:17.391Z,13.57
2018-10-18T03:59:44.614Z,20.10
2018-10-18T04:02:11.846Z,15.13
2018-10-18T04:04:38.984Z,15.83
2018-10-18T04:07:06.531Z,15.73
2018-10-18T04:09:33.685Z,13.07
2018-10-18T04:12:00.845Z,16.70
2018-10-18T04:14:27.979Z,21.53
2018-10-18T04:16:55.139Z,17.83
2018-10-18T04:19:22.403Z,13.70
2018-10-18T04:21:49.547Z,15.00
2018-10-18T04:24:16.771Z,16.60
2018-10-18T04:26:43.842Z,15.07
2018-10-18T04:29:11.160Z,19.20
2018-10-18T04:31:38.299Z,24.30
2018-10-18T04:34:05.482Z,18.00
2018-10-18T04:36:32.613Z,18.20
2018-10-18T04:38:59.782Z,20.53
2018-10-18T04:41:26.931Z,21.10
2018-10-18T04:43:54.081Z,16.20
2018-10-18T04:46:21.243Z,16.43
2018-10-18T04:48:48.429Z,21.37
2018-10-18T04:51:15.559Z,20.80
2018-10-18T04:53:42.722Z,16.07
2018-10-18T04:56:09.875Z,19.10
2018-10-18T04:58:37.026Z,24.10
2018-10-18T05:01:04.545Z,17.63
2018-10-18T05:03:31.682Z,17.97
2018-10-18T05:06:03.087Z,25.83
2018-10-18T05:08:30.458Z,25.27
2018-10-18T05:10:57.641Z,29.87
2018-10-18T05:13:25.005Z,20.77
2018-10-18T05:15:52.209Z,16.80
2018-10-18T05:18:20.016Z,15.57
2018-10-18T05:20:47.490Z,15.67
2018-10-18T05:23:14.687Z,21.37
2018-10-18T05:25:42.198Z,13.27
2018-10-18T05:28:09.374Z,23.53
2018-10-18T05:30:36.490Z,19.20
2018-10-18T05:33:03.866Z,26.50
2018-10-18T05:35:31.003Z,22.47
2018-10-18T05:37:58.133Z,27.10
2018-10-18T05:40:25.299Z,27.73
2018-10-18T05:42:52.500Z,27.60
2018-10-18T05:45:19.603Z,28.80
2018-10-18T05:47:48.002Z,33.10
2018-10-18T05:50:15.155Z,29.70
2018-10-18T05:52:42.278Z,23.83
2018-10-18T05:55:10.684Z,24.00
2018-10-18T05:57:38.035Z,29.47
2018-10-18T06:00:08.075Z,37.27
2018-10-18T06:02:35.173Z,30.97
2018-10-18T06:05:02.336Z,38.47
2018-10-18T06:07:29.504Z,31.10
2018-10-18T06:09:56.710Z,32.30
2018-10-18T06:12:23.806Z,34.67
2018-10-18T06:14:50.931Z,34.57
2018-10-18T06:17:18.090Z,36.53
2018-10-18T06:19:45.253Z,35.07
2018-10-18T06:22:12.458Z,36.10
2018-10-18T06:24:39.597Z,39.33
2018-10-18T06:27:06.726Z,33.57
2018-10-18T06:29:33.863Z,44.67
2018-10-18T06:32:01.006Z,36.97
2018-10-18T06:34:28.159Z,35.47
2018-10-18T06:36:55.361Z,36.03
2018-10-18T06:39:22.524Z,36.53
2018-10-18T06:41:49.538Z,29.63
2018-10-18T06:44:16.688Z,32.07
2018-10-18T06:46:43.883Z,29.77
2018-10-18T06:49:11.093Z,38.13
2018-10-18T06:51:38.134Z,30.37
2018-10-18T06:54:05.322Z,30.80
2018-10-18T06:56:32.446Z,29.27
2018-10-18T06:58:59.600Z,32.87
2018-10-18T07:01:27.161Z,27.90
2018-10-18T07:03:54.331Z,28.77
2018-10-18T07:06:21.462Z,31.20
2018-10-18T07:08:48.627Z,26.70
2018-10-18T07:11:15.731Z,29.33
2018-10-18T07:13:42.858Z,22.90
2018-10-18T07:16:10.010Z,32.17
2018-10-18T07:18:37.146Z,32.13
2018-10-18T07:21:04.602Z,31.50
2018-10-18T07:23:31.753Z,35.33
2018-10-18T07:25:58.883Z,30.47
2018-10-18T07:28:26.029Z,28.57
2018-10-18T07:30:53.154Z,26.37
2018-10-18T07:33:20.287Z,25.68
2018-10-18T07:35:47.417Z,29.57
2018-10-18T07:38:14.550Z,24.57
2018-10-18T07:40:41.662Z,23.42
2018-10-18T07:43:08.790Z,26.42
2018-10-18T07:45:35.916Z,30.05
2018-10-18T07:48:04.492Z,32.13
2018-10-18T07:50:31.590Z,28.02
2018-10-18T07:52:58.773Z,33.03
2018-10-18T07:55:25.924Z,34.20
2018-10-18T07:57:53.078Z,34.73
2018-10-18T08:00:20.255Z,38.13
2018-10-18T08:02:47.367Z,36.60
2018-10-18T08:05:14.680Z,41.70
2018-10-18T08:07:41.838Z,33.20
2018-10-18T08:10:17.227Z,36.00
2018-10-18T08:12:44.530Z,37.70
2018-10-18T08:15:12.893Z,38.60
2018-10-18T08:17:40.549Z,38.30
2018-10-18T08:20:08.449Z,47.47
2018-10-18T08:22:35.801Z,39.17
2018-10-18T08:25:03.186Z,43.50
2018-10-18T08:27:30.294Z,43.67
2018-10-18T08:29:57.415Z,39.43
2018-10-18T08:32:24.582Z,46.53
2018-10-18T08:34:51.723Z,42.40
2018-10-18T08:37:18.910Z,44.53
2018-10-18T08:39:46.044Z,46.17
2018-10-18T08:42:13.210Z,41.20
2018-10-18T08:44:40.359Z,45.73
2018-10-18T08:47:07.523Z,45.53
2018-10-18T08:49:34.729Z,48.83
2018-10-18T08:52:01.891Z,48.40
2018-10-18T08:54:29.071Z,52.60
2018-10-18T08:56:56.219Z,46.67
2018-10-18T08:59:23.415Z,52.50
2018-10-18T09:01:50.512Z,45.77
2018-10-18T09:04:17.670Z,46.90
2018-10-18T09:06:44.821Z,53.90
2018-10-18T09:09:12.117Z,51.53
2018-10-18T09:11:39.191Z,47.73
2018-10-18T09:14:06.734Z,54.17
2018-10-18T09:16:33.889Z,49.37
2018-10-18T09:19:01.092Z,54.87
2018-10-18T09:21:28.178Z,50.07
2018-10-18T09:23:55.437Z,49.53
2018-10-18T09:26:22.486Z,58.43
2018-10-18T09:28:49.628Z,53.27
2018-10-18T09:31:16.943Z,54.43
2018-10-18T09:33:43.958Z,49.63
2018-10-18T09:36:11.142Z,58.10
2018-10-18T09:38:38.302Z,56.33
2018-10-18T09:41:05.590Z,51.13
2018-10-18T09:43:32.783Z,55.90
2018-10-18T09:45:59.918Z,49.00
2018-10-18T09:48:27.047Z,44.00
2018-10-18T09:50:54.196Z,46.03
2018-10-18T09:53:21.350Z,51.93
2018-10-18T09:55:48.570Z,45.57
2018-10-18T09:58:15.707Z,50.00
2018-10-18T10:00:48.606Z,43.30
2018-10-18T10:03:16.879Z,50.30
2018-10-18T10:05:44.027Z,49.73
2018-10-18T10:08:11.573Z,44.33
2018-10-18T10:10:38.850Z,46.17
2018-10-18T10:13:06.522Z,41.97
2018-10-18T10:15:33.631Z,43.77
2018-10-18T10:18:01.091Z,44.33
2018-10-18T10:20:28.247Z,39.53
2018-10-18T10:22:55.882Z,42.97
2018-10-18T10:25:23.049Z,41.10
2018-10-18T10:27:50.210Z,39.33
2018-10-18T10:30:17.386Z,40.33
2018-10-18T10:32:44.560Z,46.17
2018-10-18T10:35:11.757Z,45.17
2018-10-18T10:37:38.831Z,41.83
2018-10-18T10:40:06.913Z,39.30
2018-10-18T10:42:34.040Z,43.77
2018-10-18T10:45:01.308Z,42.97
2018-10-18T10:47:28.507Z,34.30
2018-10-18T10:49:55.682Z,41.23
2018-10-18T10:52:22.898Z,38.70
2018-10-18T10:54:49.966Z,35.77
2018-10-18T10:57:17.203Z,38.57
2018-10-18T10:59:44.269Z,42.87
2018-10-18T11:02:11.471Z,46.13
2018-10-18T11:04:38.563Z,35.73
2018-10-18T11:07:05.720Z,34.77
2018-10-18T11:09:32.972Z,35.27
2018-10-18T11:12:00.079Z,39.00
2018-10-18T11:14:27.195Z,36.30
2018-10-18T11:16:54.369Z,36.27
2018-10-18T11:19:21.491Z,36.43
2018-10-18T11:21:48.748Z,35.10
2018-10-18T11:24:15.872Z,36.83
2018-10-18T11:26:42.928Z,45.30
2018-10-18T11:29:10.077Z,33.13
2018-10-18T11:31:37.226Z,32.47
2018-10-18T11:34:04.394Z,35.30
2018-10-18T11:36:31.531Z,32.77
2018-10-18T11:38:58.676Z,31.13
2018-10-18T11:41:25.831Z,37.47
2018-10-18T11:43:53.020Z,31.27
2018-10-18T11:46:20.241Z,31.20
2018-10-18T11:48:47.369Z,38.57
2018-10-18T11:51:14.524Z,30.03
2018-10-18T11:53:41.706Z,29.73
2018-10-18T11:56:08.928Z,28.33
2018-10-18T11:58:36.023Z,31.10
2018-10-18T12:01:03.594Z,28.70
2018-10-18T12:03:30.705Z,29.50
2018-10-18T12:05:57.889Z,35.27
2018-10-18T12:08:25.054Z,33.20
2018-10-18T12:10:52.238Z,29.13
2018-10-18T12:13:19.362Z,38.50
2018-10-18T12:15:46.523Z,34.90
2018-10-18T12:18:13.674Z,35.53
2018-10-18T12:20:40.822Z,32.07
2018-10-18T12:23:07.999Z,31.10
2018-10-18T12:25:35.316Z,32.67
2018-10-18T12:28:02.471Z,36.00
2018-10-18T12:30:29.598Z,39.87
2018-10-18T12:32:56.721Z,31.20
2018-10-18T12:35:23.856Z,36.33
2018-10-18T12:37:51.006Z,30.73
2018-10-18T12:40:18.200Z,38.20
2018-10-18T12:42:46.555Z,31.23
2018-10-18T12:45:13.721Z,36.97
2018-10-18T12:47:41.077Z,33.47
2018-10-18T12:50:08.321Z,35.70
2018-10-18T12:52:35.417Z,35.90
2018-10-18T12:55:02.620Z,29.73
2018-10-18T12:57:29.822Z,35.47
2018-10-18T12:59:56.981Z,40.53
2018-10-18T13:02:24.315Z,35.07
2018-10-18T13:04:51.449Z,35.33
2018-10-18T13:07:18.589Z,38.33
2018-10-18T13:09:45.737Z,31.97
2018-10-18T13:12:12.907Z,37.07
2018-10-18T13:14:40.015Z,37.60
2018-10-18T13:17:07.167Z,44.43
2018-10-18T13:19:34.311Z,39.83
2018-10-18T13:22:02.131Z,42.30
2018-10-18T13:24:29.261Z,43.43
2018-10-18T13:26:56.489Z,38.57
2018-10-18T13:29:23.630Z,38.33
2018-10-18T13:31:50.771Z,38.63
2018-10-18T13:34:17.929Z,39.70
2018-10-18T13:36:45.057Z,35.87
2018-10-18T13:39:13.665Z,39.20
2018-10-18T13:41:40.760Z,40.27
2018-10-18T13:44:08.059Z,36.33
2018-10-18T13:46:35.722Z,36.43
2018-10-18T13:49:03.009Z,33.03
2018-10-18T13:51:30.377Z,32.97
2018-10-18T13:53:57.605Z,35.93
2018-10-18T13:56:24.773Z,36.37
2018-10-18T13:58:51.915Z,34.50
2018-10-18T14:01:19.066Z,31.17
2018-10-18T14:03:46.226Z,35.50
2018-10-18T14:06:13.464Z,31.93
2018-10-18T14:08:41.467Z,31.63
2018-10-18T14:11:08.683Z,35.93
2018-10-18T14:13:35.785Z,41.10
2018-10-18T14:16:02.949Z,43.60
2018-10-18T14:18:30.088Z,36.80
2018-10-18T14:20:57.273Z,38.23
2018-10-18T14:23:24.424Z,46.40
2018-10-18T14:25:51.636Z,38.13
2018-10-18T14:28:18.736Z,33.77
2018-10-18T14:30:45.901Z,43.40
2018-10-18T14:33:13.026Z,36.97
2018-10-18T14:35:40.145Z,36.27
2018-10-18T14:38:07.451Z,36.80
2018-10-18T14:40:34.463Z,39.80
2018-10-18T14:43:01.611Z,36.10
2018-10-18T14:45:28.763Z,37.07
2018-10-18T14:47:55.962Z,35.33
2018-10-18T14:50:23.243Z,32.73
2018-10-18T14:52:50.244Z,34.87
2018-10-18T14:55:17.412Z,38.97
2018-10-18T14:57:44.608Z,38.37
2018-10-18T15:00:12.766Z,36.10
2018-10-18T15:02:39.942Z,40.60
2018-10-18T15:05:08.372Z,35.63
2018-10-18T15:07:35.752Z,35.30
2018-10-18T15:10:02.956Z,34.83
2018-10-18T15:12:30.128Z,36.00
2018-10-18T15:14:57.303Z,36.10
2018-10-18T15:17:24.484Z,37.13
2018-10-18T15:19:51.731Z,31.87
2018-10-18T15:22:18.802Z,34.83
2018-10-18T15:24:46.022Z,37.37
2018-10-18T15:27:13.266Z,34.70
2018-10-18T15:29:40.386Z,36.00
2018-10-18T15:32:08.053Z,36.87
2018-10-18T15:34:35.060Z,33.87
2018-10-18T15:37:02.185Z,41.80
2018-10-18T15:39:29.358Z,43.93
2018-10-18T15:41:56.466Z,42.30
2018-10-18T15:44:23.702Z,41.60
2018-10-18T15:46:50.750Z,32.10
2018-10-18T15:49:17.899Z,34.27
2018-10-18T15:51:45.059Z,36.10
2018-10-18T15:54:12.335Z,31.17
2018-10-18T15:56:39.344Z,32.87
2018-10-18T15:59:06.573Z,35.73
2018-10-18T16:01:33.661Z,34.37
2018-10-18T16:04:00.803Z,32.37
2018-10-18T16:06:28.318Z,32.90
2018-10-18T16:08:55.345Z,30.40
2018-10-18T16:11:22.609Z,35.63
2018-10-18T16:13:49.707Z,33.23
2018-10-18T16:16:16.828Z,33.33
2018-10-18T16:18:43.961Z,33.77
2018-10-18T16:21:11.151Z,35.80
2018-10-18T16:23:38.282Z,30.83
2018-10-18T16:26:05.532Z,30.23
2018-10-18T16:28:32.591Z,31.90
2018-10-18T16:30:59.883Z,29.67
2018-10-18T16:33:26.958Z,30.37
2018-10-18T16:35:54.094Z,29.80
2018-10-18T16:38:21.399Z,29.50
2018-10-18T16:40:48.527Z,30.60
2018-10-18T16:43:16.533Z,33.97
2018-10-18T16:45:43.791Z,27.83
2018-10-18T16:48:11.053Z,27.00
2018-10-18T16:50:38.345Z,26.87
2018-10-18T16:53:05.520Z,32.13
2018-10-18T16:55:32.653Z,23.43
2018-10-18T16:57:59.809Z,29.70
2018-10-18T17:00:26.996Z,26.90
2018-10-18T17:02:54.435Z,25.53
2018-10-18T17:05:21.595Z,28.83
2018-10-18T17:07:48.729Z,23.50
2018-10-18T17:10:15.959Z,25.60
2018-10-18T17:12:42.990Z,31.03
2018-10-18T17:15:10.129Z,28.23
2018-10-18T17:17:37.360Z,24.07
2018-10-18T17:20:05.361Z,27.70
2018-10-18T17:22:32.451Z,22.57
2018-10-18T17:24:59.575Z,24.40
2018-10-18T17:27:26.816Z,22.60
2018-10-18T17:29:53.833Z,22.17
2018-10-18T17:32:21.094Z,26.03
2018-10-18T17:34:48.148Z,30.00
2018-10-18T17:37:21.993Z,25.20
2018-10-18T17:39:49.130Z,25.00
2018-10-18T17:42:16.333Z,28.67
2018-10-18T17:44:43.414Z,24.57
2018-10-18T17:47:10.619Z,25.03
2018-10-18T17:49:37.702Z,25.20
2018-10-18T17:52:04.874Z,20.67
2018-10-18T17:54:31.984Z,23.97
2018-10-18T17:56:59.131Z,24.53
2018-10-18T17:59:26.273Z,26.97
2018-10-18T18:01:53.405Z,20.83
2018-10-18T18:04:20.546Z,24.00
2018-10-18T18:06:47.765Z,23.27
2018-10-18T18:09:15.021Z,25.00
2018-10-18T18:11:42.165Z,24.07
2018-10-18T18:14:09.310Z,22.07
2018-10-18T18:16:36.463Z,25.97
2018-10-18T18:19:03.925Z,25.93
2018-10-18T18:21:31.066Z,26.63
2018-10-18T18:23:58.210Z,25.80
2018-10-18T18:26:32.544Z,23.80
2018-10-18T18:28:52.558Z,27.33
2018-10-18T18:31:19.698Z,26.00
2018-10-18T18:33:46.841Z,24.70
2018-10-18T18:36:14.008Z,31.37
2018-10-18T18:38:41.142Z,28.37
2018-10-18T18:41:08.273Z,27.40
2018-10-18T18:43:35.402Z,28.70
2018-10-18T18:46:02.521Z,25.27
2018-10-18T18:48:29.626Z,28.77
2018-10-18T18:50:56.812Z,25.13
2018-10-18T18:53:23.952Z,26.97
2018-10-18T18:55:51.053Z,26.90
2018-10-18T18:58:18.236Z,26.40
2018-10-18T19:00:45.464Z,27.23
2018-10-18T19:03:12.809Z,27.27
2018-10-18T19:05:39.858Z,28.63
2018-10-18T19:08:06.996Z,25.30
2018-10-18T19:10:34.119Z,27.07
2018-10-18T19:13:01.229Z,24.67
2018-10-18T19:15:28.386Z,25.83
2018-10-18T19:17:55.531Z,27.37
2018-10-18T19:20:22.682Z,34.23
2018-10-18T19:22:49.932Z,26.77
2018-10-18T19:25:16.954Z,26.90
2018-10-18T19:27:44.138Z,27.20
2018-10-18T19:30:11.722Z,27.73
2018-10-18T19:32:39.556Z,30.27
2018-10-18T19:35:06.722Z,28.23
2018-10-18T19:37:33.867Z,25.00
2018-10-18T19:40:01.002Z,30.97
2018-10-18T19:42:28.153Z,26.70
2018-10-18T19:44:55.270Z,25.43
2018-10-18T19:47:22.412Z,26.50
2018-10-18T19:49:49.752Z,24.93
2018-10-18T19:52:17.172Z,23.87
2018-10-18T19:54:44.217Z,26.10
2018-10-18T19:57:11.341Z,24.30
2018-10-18T19:59:38.522Z,26.10
2018-10-18T20:02:05.822Z,28.40
2018-10-18T20:04:32.894Z,23.97
2018-10-18T20:07:00.031Z,26.13
2018-10-18T20:09:27.281Z,21.40
2018-10-18T20:11:54.457Z,22.20
2018-10-18T20:14:21.555Z,23.33
2018-10-18T20:16:48.691Z,20.60
2018-10-18T20:19:15.796Z,24.70
2018-10-18T20:21:42.971Z,22.80
2018-10-18T20:24:10.370Z,21.80
2018-10-18T20:26:37.756Z,20.80
2018-10-18T20:29:04.921Z,21.07
2018-10-18T20:31:32.102Z,19.50
2018-10-18T20:33:59.289Z,18.87
2018-10-18T20:36:26.643Z,17.50
2018-10-18T20:38:53.811Z,21.30
2018-10-18T20:41:21.150Z,19.17
2018-10-18T20:43:48.282Z,19.47
2018-10-18T20:46:15.412Z,17.43
2018-10-18T20:48:42.556Z,20.37
2018-10-18T20:51:09.738Z,14.03
2018-10-18T20:53:36.790Z,14.67
2018-10-18T20:56:04.116Z,15.57
2018-10-18T20:58:31.312Z,15.27
2018-10-18T21:00:58.406Z,12.80
2018-10-18T21:03:25.553Z,13.40
2018-10-18T21:05:52.745Z,9.77
2018-10-18T21:08:19.836Z,9.90
2018-10-18T21:10:47.014Z,7.70
2018-10-18T21:13:14.240Z,7.73
2018-10-18T21:15:41.333Z,9.67
2018-10-18T21:18:08.528Z,9.27
2018-10-18T21:20:35.654Z,7.80
2018-10-18T21:23:02.881Z,5.73
2018-10-18T21:25:29.976Z,7.13
2018-10-18T21:27:57.236Z,6.00
2018-10-18T21:30:24.268Z,8.00
2018-10-18T21:32:51.427Z,7.00
2018-10-18T21:35:18.561Z,4.83
2018-10-18T21:37:45.691Z,5.70
2018-10-18T21:40:12.825Z,5.80
2018-10-18T21:42:39.960Z,6.23
2018-10-18T21:45:07.205Z,4.03
2018-10-18T21:47:34.421Z,4.80
2018-10-18T21:50:01.601Z,6.57
2018-10-18T21:52:28.757Z,4.33
2018-10-18T21:54:55.925Z,7.50
2018-10-18T21:57:23.054Z,4.93
2018-10-18T21:59:50.204Z,4.93
2018-10-18T22:02:17.347Z,7.83
2018-10-18T22:04:44.548Z,7.47
2018-10-18T22:07:11.663Z,6.77
2018-10-18T22:09:38.790Z,6.47
2018-10-18T22:12:06.064Z,5.27
2018-10-18T22:14:33.275Z,8.30
2018-10-18T22:17:00.477Z,7.60
2018-10-18T22:19:27.583Z,9.70
2018-10-18T22:21:54.765Z,8.17
2018-10-18T22:24:21.903Z,5.23
2018-10-18T22:26:49.030Z,7.90
2018-10-18T22:29:16.227Z,4.77
2018-10-18T22:31:43.350Z,6.17
2018-10-18T22:34:10.545Z,5.90
2018-10-18T22:36:37.663Z,4.40
2018-10-18T22:39:07.395Z,4.07
2018-10-18T22:41:34.594Z,4.23
2018-10-18T22:44:01.744Z,8.70
2018-10-18T22:46:28.895Z,5.07
2018-10-18T22:48:56.047Z,6.70
2018-10-18T22:51:23.204Z,7.30
2018-10-18T22:53:50.356Z,6.77
2018-10-18T22:56:17.492Z,11.43
2018-10-18T22:58:44.653Z,10.33
2018-10-18T23:01:11.835Z,4.13
2018-10-18T23:03:38.971Z,5.20
2018-10-18T23:06:06.108Z,7.70
2018-10-18T23:08:33.282Z,10.23
2018-10-18T23:11:00.470Z,7.90
2018-10-18T23:13:27.594Z,5.80
2018-10-18T23:15:54.757Z,4.13
2018-10-18T23:18:21.926Z,3.87
2018-10-18T23:20:49.145Z,5.77
2018-10-18T23:23:16.337Z,3.87
2018-10-18T23:25:43.409Z,3.20
2018-10-18T23:28:10.567Z,6.13
2018-10-18T23:30:37.718Z,3.40
2018-10-18T23:33:04.916Z,4.03
2018-10-18T23:35:32.030Z,4.80
2018-10-18T23:37:59.171Z,5.47
2018-10-18T23:40:26.315Z,3.63
2018-10-18T23:42:53.490Z,4.03
2018-10-18T23:45:21.427Z,3.80
2018-10-18T23:47:49.753Z,5.90
2018-10-18T23:50:17.111Z,4.63
2018-10-18T23:52:44.249Z,6.33
2018-10-18T23:55:11.407Z,2.83
2018-10-18T23:57:38.545Z,3.80
